TOMAZ weather

Aviosuperficie Il Falco
Mazzè (TO), Piedmont, Italy

Public forecast

Using degrees Celsius for public forecast. Weather courtesy of forecast.io.

Closest aviation weather report (METAR) to Aviosuperficie Il Falco

Closest report is Turin Airport, 13.3 nm (24.5 km) WSW. Retrieved 2020/05/28 19:20 UTC (13 minutes ago):

LIMF 281920Z 06004KT 9999 SCT090 22/13 Q1019

Closest aviation forecast (TAF) to Aviosuperficie Il Falco

Closest forecast is Turin Airport, 13.3 nm (24.5 km) WSW. Retrieved 2020/05/28 18:00 UTC (2 hours ago):

TAF LIMF 281700Z 2818/2918 VRB06KT 9999 FEW050 TEMPO 2900/2914 TSRA